createdAt,value
2024-01-20T00:02:12.225Z,100543.24
2024-01-20T00:04:46.347Z,100544.27
2024-01-20T00:07:19.993Z,100547.31
2024-01-20T00:09:53.165Z,100542.60
2024-01-20T00:12:26.430Z,100548.52
2024-01-20T00:14:59.749Z,100545.08
2024-01-20T00:17:35.421Z,100542.91
2024-01-20T00:20:00.152Z,100539.56
2024-01-20T00:22:34.672Z,100536.06
2024-01-20T00:25:11.587Z,100535.80
2024-01-20T00:27:45.905Z,100526.95
2024-01-20T00:30:11.273Z,100529.90
2024-01-20T00:32:45.719Z,100524.11
2024-01-20T00:35:19.132Z,100521.45
2024-01-20T00:37:52.618Z,100518.59
2024-01-20T00:40:17.519Z,100527.41
2024-01-20T00:42:51.269Z,100529.52
2024-01-20T00:45:25.063Z,100526.12
2024-01-20T00:47:58.141Z,100522.21
2024-01-20T00:50:28.711Z,100525.19
2024-01-20T00:53:02.275Z,100519.83
2024-01-20T00:55:25.071Z,100523.51
2024-01-20T00:57:55.583Z,100521.10
2024-01-20T01:00:29.223Z,100524.15
2024-01-20T01:02:52.867Z,100523.70
2024-01-20T01:05:25.923Z,100524.40
2024-01-20T01:07:59.030Z,100521.44
2024-01-20T01:10:32.571Z,100524.52
2024-01-20T01:13:06.976Z,100517.31
2024-01-20T01:15:40.073Z,100514.67
2024-01-20T01:18:13.459Z,100512.02
2024-01-20T01:20:47.478Z,100513.73
2024-01-20T01:23:20.938Z,100501.55
2024-01-20T01:26:17.340Z,100496.38
2024-01-20T01:28:51.019Z,100499.13
2024-01-20T01:31:17.136Z,100500.77
2024-01-20T01:33:50.448Z,100501.34
2024-01-20T01:36:24.083Z,100500.30
2024-01-20T01:38:41.072Z,100499.70
2024-01-20T01:41:14.798Z,100494.14
2024-01-20T01:43:39.105Z,100488.97
2024-01-20T01:46:12.970Z,100482.30
2024-01-20T01:48:47.989Z,100482.89
2024-01-20T01:51:21.851Z,100481.09
2024-01-20T01:53:55.514Z,100478.70
2024-01-20T01:56:28.966Z,100477.58
2024-01-20T01:59:02.683Z,100479.66
2024-01-20T02:01:28.534Z,100476.15
2024-01-20T02:03:53.067Z,100475.88
2024-01-20T02:06:27.196Z,100469.12
2024-01-20T02:08:51.416Z,100468.19
2024-01-20T02:11:25.461Z,100467.10
2024-01-20T02:13:59.003Z,100464.13
2024-01-20T02:16:22.973Z,100457.77
2024-01-20T02:18:42.101Z,100456.09
2024-01-20T02:21:14.900Z,100445.46
2024-01-20T02:23:51.197Z,100430.02
2024-01-20T02:26:12.971Z,100427.20
2024-01-20T02:28:26.881Z,100425.15
2024-01-20T02:31:00.223Z,100421.74
2024-01-20T02:33:14.902Z,100421.52
2024-01-20T02:35:48.746Z,100421.08
2024-01-20T02:38:21.926Z,100419.73
2024-01-20T02:40:44.746Z,100419.21
2024-01-20T02:43:09.026Z,100422.27
2024-01-20T02:45:33.138Z,100423.77
2024-01-20T02:48:07.087Z,100424.45
2024-01-20T02:50:40.576Z,100426.64
2024-01-20T02:53:13.976Z,100428.20
2024-01-20T02:55:41.255Z,100430.20
2024-01-20T02:58:14.642Z,100429.92
2024-01-20T03:00:49.060Z,100431.43
2024-01-20T03:03:23.250Z,100430.85
2024-01-20T03:05:57.854Z,100432.93
2024-01-20T03:08:22.921Z,100436.25
2024-01-20T03:10:56.826Z,100435.45
2024-01-20T03:13:29.737Z,100425.02
2024-01-20T03:16:03.913Z,100426.46
2024-01-20T03:18:39.611Z,100421.13
2024-01-20T03:21:13.404Z,100421.91
2024-01-20T03:23:48.224Z,100418.56
2024-01-20T03:26:21.816Z,100411.45
2024-01-20T03:28:55.179Z,100410.32
2024-01-20T03:31:29.263Z,100404.60
2024-01-20T03:34:02.730Z,100394.35
2024-01-20T03:36:37.184Z,100384.30
2024-01-20T03:39:01.836Z,100377.09
2024-01-20T03:41:24.281Z,100369.64
2024-01-20T03:43:54.773Z,100364.17
2024-01-20T03:46:29.156Z,100358.60
2024-01-20T03:49:02.556Z,100358.95
2024-01-20T03:51:16.333Z,100362.66
2024-01-20T03:53:50.945Z,100364.54
2024-01-20T03:56:24.492Z,100362.95
2024-01-20T03:58:58.418Z,100359.35
2024-01-20T04:01:32.495Z,100360.08
2024-01-20T04:04:06.999Z,100361.08
2024-01-20T04:06:34.559Z,100358.31
2024-01-20T04:09:08.596Z,100363.89
2024-01-20T04:11:41.489Z,100367.30
2024-01-20T04:14:12.234Z,100366.29
2024-01-20T04:16:45.598Z,100369.94
2024-01-20T04:19:19.883Z,100370.48
2024-01-20T04:21:52.902Z,100372.30
2024-01-20T04:24:26.610Z,100374.48
2024-01-20T04:26:49.288Z,100372.05
2024-01-20T04:29:22.767Z,100367.63
2024-01-20T04:31:45.130Z,100372.68
2024-01-20T04:34:17.942Z,100377.04
2024-01-20T04:36:40.222Z,100381.15
2024-01-20T04:39:13.845Z,100385.64
2024-01-20T04:41:47.033Z,100379.95
2024-01-20T04:44:20.065Z,100375.13
2024-01-20T04:46:53.932Z,100375.99
2024-01-20T04:49:26.933Z,100379.69
2024-01-20T04:51:57.562Z,100375.88
2024-01-20T04:54:19.850Z,100374.52
2024-01-20T04:56:53.229Z,100369.79
2024-01-20T04:59:15.163Z,100363.23
2024-01-20T05:01:47.520Z,100359.92
2024-01-20T05:04:21.634Z,100353.73
2024-01-20T05:06:56.375Z,100353.23
2024-01-20T05:09:18.686Z,100348.14
2024-01-20T05:11:51.811Z,100347.72
2024-01-20T05:14:25.267Z,100343.90
2024-01-20T05:16:59.148Z,100343.21
2024-01-20T05:20:32.852Z,100344.52
2024-01-20T05:22:26.802Z,100346.41
2024-01-20T05:25:00.746Z,100353.09
2024-01-20T05:27:34.299Z,100357.77
2024-01-20T05:30:12.173Z,100356.69
2024-01-20T05:32:33.901Z,100354.84
2024-01-20T05:35:08.634Z,100355.17
2024-01-20T05:37:42.693Z,100356.84
2024-01-20T05:41:04.932Z,100352.05
2024-01-20T05:43:14.078Z,100350.09
2024-01-20T05:45:47.908Z,100346.40
2024-01-20T05:48:21.836Z,100348.91
2024-01-20T05:50:49.494Z,100352.79
2024-01-20T05:53:24.096Z,100347.12
2024-01-20T05:55:56.928Z,100343.98
2024-01-20T05:58:27.782Z,100339.54
2024-01-20T06:00:50.259Z,100339.02
2024-01-20T06:03:23.598Z,100338.98
2024-01-20T06:05:57.044Z,100335.56
2024-01-20T06:08:30.372Z,100332.67
2024-01-20T06:11:04.937Z,100329.77
2024-01-20T06:13:39.361Z,100330.70
2024-01-20T06:16:15.229Z,100341.01
2024-01-20T06:18:48.184Z,100341.61
2024-01-20T06:21:23.982Z,100336.83
2024-01-20T06:23:57.109Z,100335.68
2024-01-20T06:26:30.554Z,100337.47
2024-01-20T06:29:04.614Z,100341.52
2024-01-20T06:31:37.402Z,100340.95
2024-01-20T06:34:10.924Z,100335.68
2024-01-20T06:36:44.256Z,100332.89
2024-01-20T06:39:17.363Z,100327.83
2024-01-20T06:41:52.672Z,100328.21
2024-01-20T06:44:25.796Z,100331.23
2024-01-20T06:46:59.341Z,100335.26
2024-01-20T06:49:32.686Z,100337.35
2024-01-20T06:52:07.730Z,100337.23
2024-01-20T06:54:42.089Z,100338.20
2024-01-20T06:57:15.289Z,100339.52
2024-01-20T06:59:48.950Z,100332.13
2024-01-20T07:02:21.774Z,100330.27
2024-01-20T07:04:55.209Z,100334.20
2024-01-20T07:07:29.091Z,100334.59
2024-01-20T07:10:02.714Z,100335.77
2024-01-20T07:12:36.004Z,100337.50
2024-01-20T07:15:10.325Z,100340.81
2024-01-20T07:17:43.159Z,100346.09
2024-01-20T07:20:18.264Z,100344.89
2024-01-20T07:22:52.132Z,100347.01
2024-01-20T07:25:15.640Z,100352.79
2024-01-20T07:27:49.123Z,100357.66
2024-01-20T07:30:23.664Z,100348.49
2024-01-20T07:33:00.396Z,100345.14
2024-01-20T07:35:24.117Z,100334.73
2024-01-20T07:37:56.886Z,100341.22
2024-01-20T07:40:30.280Z,100340.36
2024-01-20T07:43:05.945Z,100348.54
2024-01-20T07:45:40.169Z,100342.05
2024-01-20T07:48:13.706Z,100338.50
2024-01-20T07:50:47.597Z,100333.11
2024-01-20T07:53:21.073Z,100332.38
2024-01-20T07:55:54.813Z,100327.54
2024-01-20T07:58:28.193Z,100326.29
2024-01-20T08:01:01.443Z,100320.23
2024-01-20T08:03:34.872Z,100320.07
2024-01-20T08:06:07.206Z,100319.16
2024-01-20T08:08:40.336Z,100315.60
2024-01-20T08:11:14.376Z,100317.34
2024-01-20T08:13:47.600Z,100307.24
2024-01-20T08:16:22.182Z,100306.52
2024-01-20T08:18:55.382Z,100308.25
2024-01-20T08:21:17.244Z,100310.34
2024-01-20T08:23:48.048Z,100309.78
2024-01-20T08:26:20.856Z,100303.14
2024-01-20T08:28:41.514Z,100308.59
2024-01-20T08:31:14.993Z,100307.17
2024-01-20T08:33:47.938Z,100310.54
2024-01-20T08:36:11.075Z,100308.95
2024-01-20T08:38:32.931Z,100311.96
2024-01-20T08:40:56.610Z,100308.93
2024-01-20T08:43:29.889Z,100311.77
2024-01-20T08:45:58.042Z,100312.48
2024-01-20T08:48:31.672Z,100308.48
2024-01-20T08:51:05.981Z,100307.20
2024-01-20T08:53:28.513Z,100306.80
2024-01-20T08:56:02.459Z,100307.84
2024-01-20T08:58:35.672Z,100313.02
2024-01-20T09:01:08.801Z,100313.86
2024-01-20T09:03:42.014Z,100312.29
2024-01-20T09:06:05.266Z,100311.23
2024-01-20T09:08:38.486Z,100318.30
2024-01-20T09:11:12.792Z,100320.09
2024-01-20T09:13:45.484Z,100317.61
2024-01-20T09:16:06.091Z,100317.44
2024-01-20T09:18:39.934Z,100306.77
2024-01-20T09:21:16.767Z,100298.04
2024-01-20T09:23:53.037Z,100295.33
2024-01-20T09:26:26.532Z,100288.97
2024-01-20T09:28:51.777Z,100282.84
2024-01-20T09:31:22.704Z,100283.56
2024-01-20T09:33:56.228Z,100277.89
2024-01-20T09:36:30.170Z,100273.86
2024-01-20T09:39:04.423Z,100265.27
2024-01-20T09:41:38.583Z,100263.27
2024-01-20T09:44:03.010Z,100260.37
2024-01-20T09:46:36.284Z,100261.05
2024-01-20T09:49:10.065Z,100256.23
2024-01-20T09:51:49.764Z,100248.64
2024-01-20T09:54:25.512Z,100247.17
2024-01-20T09:56:59.224Z,100240.35
2024-01-20T09:59:24.226Z,100238.65
2024-01-20T10:01:58.342Z,100234.71
2024-01-20T10:04:33.297Z,100228.23
2024-01-20T10:07:06.061Z,100225.18
2024-01-20T10:09:39.773Z,100223.52
2024-01-20T10:12:14.115Z,100220.82
2024-01-20T10:14:46.886Z,100214.70
2024-01-20T10:17:17.029Z,100217.10
2024-01-20T10:19:50.610Z,100215.17
2024-01-20T10:22:16.687Z,100218.00
2024-01-20T10:24:57.261Z,100219.64
2024-01-20T10:27:30.269Z,100221.29
2024-01-20T10:30:03.120Z,100230.04
2024-01-20T10:32:47.561Z,100230.83
2024-01-20T10:35:26.993Z,100231.31
2024-01-20T10:38:04.754Z,100230.89
2024-01-20T10:40:41.544Z,100235.55
2024-01-20T10:43:19.312Z,100250.73
2024-01-20T10:46:11.179Z,100252.41
2024-01-20T10:48:51.717Z,100247.11
2024-01-20T10:51:29.577Z,100247.87
2024-01-20T10:54:05.440Z,100259.21
2024-01-20T10:56:41.292Z,100271.21
2024-01-20T10:59:18.693Z,100264.59
2024-01-20T11:01:52.667Z,100262.84
2024-01-20T11:04:05.696Z,100271.71
2024-01-20T11:06:40.109Z,100272.08
2024-01-20T11:09:04.424Z,100266.87
2024-01-20T11:11:39.960Z,100267.56
2024-01-20T11:14:06.968Z,100262.52
2024-01-20T11:16:40.714Z,100260.46
2024-01-20T11:19:16.247Z,100258.36
2024-01-20T11:21:49.515Z,100257.70
2024-01-20T11:24:39.156Z,100259.50
2024-01-20T11:27:13.442Z,100268.36
2024-01-20T11:29:46.720Z,100268.86
2024-01-20T11:32:19.537Z,100266.50
2024-01-20T11:37:41.431Z,100267.04
2024-01-20T11:40:16.507Z,100274.42
2024-01-20T11:42:38.924Z,100265.08
2024-01-20T11:45:14.261Z,100263.28
2024-01-20T11:47:50.216Z,100264.39
2024-01-20T11:50:15.977Z,100262.88
2024-01-20T11:52:39.608Z,100264.17
2024-01-20T11:55:14.100Z,100264.43
2024-01-20T11:57:47.894Z,100259.15
2024-01-20T12:00:21.895Z,100253.30
2024-01-20T12:02:56.249Z,100252.76
2024-01-20T12:05:29.644Z,100242.54
2024-01-20T12:07:53.203Z,100238.35
2024-01-20T12:10:18.339Z,100236.78
2024-01-20T12:13:15.794Z,100238.77
2024-01-20T12:15:45.380Z,100233.16
2024-01-20T12:18:20.582Z,100222.05
2024-01-20T12:20:34.831Z,100218.56
2024-01-20T12:23:02.095Z,100212.04
2024-01-20T12:25:26.260Z,100208.32
2024-01-20T12:27:53.018Z,100207.81
2024-01-20T12:30:18.920Z,100198.84
2024-01-20T12:32:52.330Z,100187.16
2024-01-20T12:35:26.228Z,100189.90
2024-01-20T12:37:59.375Z,100181.44
2024-01-20T12:40:33.457Z,100175.41
2024-01-20T12:42:57.112Z,100167.77
2024-01-20T12:45:31.454Z,100163.36
2024-01-20T12:48:06.193Z,100159.13
2024-01-20T12:50:39.706Z,100149.66
2024-01-20T12:53:12.836Z,100148.06
2024-01-20T12:55:38.231Z,100140.99
2024-01-20T12:58:12.021Z,100130.85
2024-01-20T13:00:45.251Z,100121.05
2024-01-20T13:03:19.263Z,100114.40
2024-01-20T13:05:45.206Z,100107.64
2024-01-20T13:08:18.374Z,100098.35
2024-01-20T13:10:52.494Z,100087.78
2024-01-20T13:13:27.979Z,100068.76
2024-01-20T13:15:52.602Z,100053.98
2024-01-20T13:18:26.175Z,100045.75
2024-01-20T13:20:52.511Z,100043.51
2024-01-20T13:23:16.568Z,100041.90
2024-01-20T13:25:49.403Z,100044.17
2024-01-20T13:28:23.181Z,100042.75
2024-01-20T13:30:56.705Z,100034.27
2024-01-20T13:33:29.591Z,100029.77
2024-01-20T13:36:02.857Z,100025.33
2024-01-20T13:38:33.034Z,100014.15
2024-01-20T13:41:06.499Z,100005.33
2024-01-20T13:43:39.377Z,99997.60
2024-01-20T13:46:09.627Z,99995.82
2024-01-20T13:48:42.847Z,99995.24
2024-01-20T13:51:16.216Z,99991.31
2024-01-20T13:53:49.701Z,99984.18
2024-01-20T13:56:23.224Z,99981.39
2024-01-20T13:58:57.572Z,99980.85
2024-01-20T14:01:31.165Z,99980.45
2024-01-20T14:04:04.464Z,99978.58
2024-01-20T14:06:38.255Z,99977.95
2024-01-20T14:09:12.131Z,99977.99
2024-01-20T14:11:46.211Z,99970.90
2024-01-20T14:14:12.686Z,99969.11
2024-01-20T14:16:45.835Z,99964.56
2024-01-20T14:19:19.336Z,99960.27
2024-01-20T14:21:52.597Z,99954.19
2024-01-20T14:24:25.662Z,99952.56
2024-01-20T14:26:58.929Z,99951.77
2024-01-20T14:29:32.642Z,99951.40
2024-01-20T14:32:05.973Z,99948.61
2024-01-20T14:34:39.109Z,99941.81
2024-01-20T14:37:03.648Z,99941.39
2024-01-20T14:39:28.668Z,99937.19
2024-01-20T14:41:59.039Z,99931.36
2024-01-20T14:44:32.294Z,99930.52
2024-01-20T14:47:05.931Z,99929.63
2024-01-20T14:49:38.894Z,99927.09
2024-01-20T14:52:12.929Z,99925.21
2024-01-20T14:54:36.169Z,99922.13
2024-01-20T14:57:06.275Z,99919.95
2024-01-20T14:59:39.398Z,99910.38
2024-01-20T15:02:10.430Z,99911.60
2024-01-20T15:04:44.284Z,99908.21
2024-01-20T15:07:19.925Z,99900.93
2024-01-20T15:09:53.593Z,99893.11
2024-01-20T15:12:15.413Z,99887.66
2024-01-20T15:14:48.339Z,99881.92
2024-01-20T15:17:21.574Z,99880.61
2024-01-20T15:19:55.258Z,99875.08
2024-01-20T15:22:28.556Z,99872.26
2024-01-20T15:25:01.906Z,99860.39
2024-01-20T15:27:37.911Z,99848.14
2024-01-20T15:30:00.753Z,99845.69
2024-01-20T15:32:34.094Z,99838.73
2024-01-20T15:35:08.120Z,99837.62
2024-01-20T15:37:41.805Z,99834.92
2024-01-20T15:40:18.521Z,99833.55
2024-01-20T15:42:52.408Z,99832.38
2024-01-20T15:45:25.611Z,99832.05
2024-01-20T15:47:59.543Z,99832.53
